ASL30D LYBE-LYTV
Flight info
| Callsign | ASL30D |
|---|---|
| Flight time | 0h 40m |
| Altitude | 23000 |
| Route | VAL DCT MOJ N732 POD |
| Aircraft | A319/M-SDE3FGHIRWY/LB1 |
Departure
| Time | 2026-05-01 14:44 |
|---|---|
| Airport | Belgrade Nikola Tesla Airport (LYBE) |
Arrival
| Time | 2026-05-01 15:25 |
|---|---|
| Airport | Tivat Airport (LYTV) |
| Time | Latitude | Longitude | Altitude | Speed | Heading |
|---|---|---|---|---|---|
| 2026-05-01 14:24 | 44.82057 | 20.29371 | 342 ft | 0 kts | 302° |
| 2026-05-01 14:36 | 44.82052 | 20.29383 | 342 ft | 2 kts | 301° |
| 2026-05-01 14:36 | 44.82044 | 20.29400 | 342 ft | 2 kts | 302° |
| 2026-05-01 14:36 | 44.82036 | 20.29418 | 342 ft | 2 kts | 301° |
| 2026-05-01 14:36 | 44.82028 | 20.29436 | 342 ft | 2 kts | 312° |
| 2026-05-01 14:37 | 44.82015 | 20.29446 | 342 ft | 2 kts | 355° |
| 2026-05-01 14:37 | 44.82002 | 20.29443 | 342 ft | 0 kts | 27° |
| 2026-05-01 14:37 | 44.81997 | 20.29438 | 342 ft | 1 kts | 33° |
| 2026-05-01 14:37 | 44.81995 | 20.29437 | 342 ft | 0 kts | 32° |
| 2026-05-01 14:39 | 44.81996 | 20.29438 | 342 ft | 0 kts | 32° |
| 2026-05-01 14:39 | 44.82038 | 20.29473 | 342 ft | 13 kts | 30° |
| 2026-05-01 14:39 | 44.82109 | 20.29548 | 342 ft | 10 kts | 62° |
| 2026-05-01 14:40 | 44.82090 | 20.29650 | 342 ft | 14 kts | 122° |
| 2026-05-01 14:40 | 44.82006 | 20.29838 | 342 ft | 28 kts | 122° |
| 2026-05-01 14:40 | 44.81902 | 20.30073 | 342 ft | 27 kts | 122° |
| 2026-05-01 14:40 | 44.81790 | 20.30326 | 342 ft | 31 kts | 121° |
| 2026-05-01 14:41 | 44.81678 | 20.30578 | 342 ft | 29 kts | 122° |
| 2026-05-01 14:41 | 44.81573 | 20.30815 | 342 ft | 28 kts | 121° |
| 2026-05-01 14:41 | 44.81472 | 20.31045 | 342 ft | 27 kts | 122° |
| 2026-05-01 14:41 | 44.81369 | 20.31276 | 342 ft | 29 kts | 123° |
| 2026-05-01 14:42 | 44.81263 | 20.31515 | 342 ft | 28 kts | 121° |
| 2026-05-01 14:42 | 44.81161 | 20.31744 | 342 ft | 27 kts | 121° |
| 2026-05-01 14:42 | 44.81063 | 20.31963 | 343 ft | 26 kts | 121° |
| 2026-05-01 14:42 | 44.80996 | 20.32122 | 343 ft | 14 kts | 113° |
| 2026-05-01 14:43 | 44.81016 | 20.32254 | 342 ft | 15 kts | 42° |
| 2026-05-01 14:43 | 44.81117 | 20.32303 | 343 ft | 16 kts | 8° |
| 2026-05-01 14:43 | 44.81221 | 20.32300 | 343 ft | 9 kts | 343° |
| 2026-05-01 14:43 | 44.81251 | 20.32258 | 342 ft | 10 kts | 300° |
| 2026-05-01 14:44 | 44.81397 | 20.31929 | 343 ft | 77 kts | 302° |
| 2026-05-01 14:44 | 44.82395 | 20.29636 | 790 ft | 165 kts | 301° |
| 2026-05-01 14:44 | 44.82890 | 20.28274 | 1662 ft | 160 kts | 287° |
| 2026-05-01 14:45 | 44.82779 | 20.26751 | 2359 ft | 163 kts | 250° |
| 2026-05-01 14:45 | 44.81641 | 20.23721 | 3204 ft | 191 kts | 244° |
| 2026-05-01 14:45 | 44.81021 | 20.21973 | 3614 ft | 208 kts | 247° |
| 2026-05-01 14:46 | 44.80392 | 20.20037 | 4035 ft | 227 kts | 248° |
| 2026-05-01 14:46 | 44.79130 | 20.15941 | 5654 ft | 231 kts | 247° |
| 2026-05-01 14:46 | 44.78218 | 20.14134 | 6436 ft | 236 kts | 218° |
| 2026-05-01 14:47 | 44.76772 | 20.13046 | 7250 ft | 237 kts | 199° |
| 2026-05-01 14:47 | 44.75214 | 20.12298 | 8003 ft | 241 kts | 197° |
| 2026-05-01 14:47 | 44.73620 | 20.11548 | 8760 ft | 246 kts | 198° |
| 2026-05-01 14:48 | 44.70393 | 20.09847 | 10280 ft | 253 kts | 199° |
| 2026-05-01 14:48 | 44.68777 | 20.08942 | 10990 ft | 256 kts | 200° |
| 2026-05-01 14:48 | 44.65353 | 20.06947 | 11984 ft | 283 kts | 201° |
| 2026-05-01 14:49 | 44.61488 | 20.04651 | 12715 ft | 318 kts | 201° |
| 2026-05-01 14:49 | 44.57333 | 20.02186 | 14034 ft | 329 kts | 201° |
| 2026-05-01 14:50 | 44.54525 | 20.00529 | 14948 ft | 335 kts | 201° |
| 2026-05-01 14:50 | 44.48716 | 19.97112 | 16742 ft | 345 kts | 201° |
| 2026-05-01 14:51 | 44.46508 | 19.95814 | 17419 ft | 347 kts | 201° |
| 2026-05-01 14:51 | 44.42007 | 19.93172 | 18708 ft | 354 kts | 201° |
| 2026-05-01 14:52 | 44.37439 | 19.90498 | 19950 ft | 361 kts | 201° |
| 2026-05-01 14:52 | 44.35147 | 19.89156 | 20576 ft | 363 kts | 201° |
| 2026-05-01 14:52 | 44.30316 | 19.87037 | 21777 ft | 365 kts | 187° |
| 2026-05-01 14:53 | 44.27832 | 19.86444 | 22365 ft | 367 kts | 186° |
| 2026-05-01 14:53 | 44.25311 | 19.85905 | 22976 ft | 369 kts | 185° |
| 2026-05-01 14:53 | 44.22749 | 19.85366 | 23237 ft | 373 kts | 185° |
| 2026-05-01 14:53 | 44.20188 | 19.84821 | 23252 ft | 374 kts | 185° |
| 2026-05-01 14:54 | 44.17616 | 19.84266 | 23252 ft | 373 kts | 186° |
| 2026-05-01 14:54 | 44.15052 | 19.83706 | 23248 ft | 372 kts | 186° |
| 2026-05-01 14:54 | 44.12505 | 19.83148 | 23239 ft | 372 kts | 186° |
| 2026-05-01 14:54 | 44.09973 | 19.82591 | 23224 ft | 372 kts | 186° |
| 2026-05-01 14:55 | 44.07428 | 19.82028 | 23219 ft | 372 kts | 186° |
| 2026-05-01 14:55 | 44.04861 | 19.81466 | 23225 ft | 372 kts | 186° |
| 2026-05-01 14:55 | 44.02309 | 19.80906 | 23222 ft | 371 kts | 186° |
| 2026-05-01 14:55 | 43.99773 | 19.80349 | 23215 ft | 371 kts | 186° |
| 2026-05-01 14:56 | 43.97213 | 19.79785 | 23209 ft | 371 kts | 186° |
| 2026-05-01 14:56 | 43.94669 | 19.79228 | 23211 ft | 371 kts | 186° |
| 2026-05-01 14:56 | 43.92118 | 19.78667 | 23213 ft | 371 kts | 186° |
| 2026-05-01 14:56 | 43.89563 | 19.78109 | 23209 ft | 371 kts | 186° |
| 2026-05-01 14:57 | 43.87029 | 19.77557 | 23208 ft | 370 kts | 186° |
| 2026-05-01 14:57 | 43.81939 | 19.76452 | 23197 ft | 370 kts | 187° |
| 2026-05-01 14:57 | 43.79419 | 19.75905 | 23196 ft | 369 kts | 187° |
| 2026-05-01 14:58 | 43.76859 | 19.75346 | 23200 ft | 369 kts | 187° |
| 2026-05-01 14:58 | 43.74332 | 19.74796 | 23198 ft | 369 kts | 187° |
| 2026-05-01 14:58 | 43.71797 | 19.74246 | 23193 ft | 368 kts | 187° |
| 2026-05-01 14:58 | 43.69259 | 19.73693 | 23191 ft | 368 kts | 187° |
| 2026-05-01 14:59 | 43.66754 | 19.73147 | 23189 ft | 368 kts | 187° |
| 2026-05-01 14:59 | 43.64217 | 19.72597 | 23184 ft | 368 kts | 187° |
| 2026-05-01 14:59 | 43.61710 | 19.72053 | 23173 ft | 367 kts | 187° |
| 2026-05-01 14:59 | 43.59187 | 19.71506 | 23174 ft | 368 kts | 187° |
| 2026-05-01 15:00 | 43.54128 | 19.70412 | 23171 ft | 367 kts | 187° |
| 2026-05-01 15:00 | 43.51612 | 19.69867 | 23165 ft | 367 kts | 187° |
| 2026-05-01 15:00 | 43.49079 | 19.69322 | 23160 ft | 367 kts | 188° |
| 2026-05-01 15:01 | 43.46589 | 19.68786 | 23161 ft | 366 kts | 188° |
| 2026-05-01 15:01 | 43.44063 | 19.68241 | 23166 ft | 366 kts | 188° |
| 2026-05-01 15:01 | 43.41549 | 19.67699 | 23167 ft | 365 kts | 188° |
| 2026-05-01 15:01 | 43.39046 | 19.67159 | 23168 ft | 365 kts | 188° |
| 2026-05-01 15:02 | 43.36554 | 19.66621 | 23171 ft | 365 kts | 188° |
| 2026-05-01 15:02 | 43.34890 | 19.66263 | 23170 ft | 365 kts | 188° |
| 2026-05-01 15:02 | 43.31561 | 19.65549 | 23172 ft | 364 kts | 188° |
| 2026-05-01 15:02 | 43.29054 | 19.65012 | 23171 ft | 363 kts | 188° |
| 2026-05-01 15:03 | 43.26548 | 19.64476 | 23171 ft | 363 kts | 188° |
| 2026-05-01 15:03 | 43.24071 | 19.63946 | 23168 ft | 363 kts | 188° |
| 2026-05-01 15:03 | 43.21581 | 19.63413 | 23167 ft | 362 kts | 188° |
| 2026-05-01 15:03 | 43.19098 | 19.62881 | 23170 ft | 362 kts | 189° |
| 2026-05-01 15:04 | 43.16607 | 19.62348 | 23168 ft | 361 kts | 189° |
| 2026-05-01 15:04 | 43.14127 | 19.61818 | 23170 ft | 361 kts | 189° |
| 2026-05-01 15:04 | 43.11646 | 19.61287 | 23169 ft | 360 kts | 189° |
| 2026-05-01 15:04 | 43.09176 | 19.60760 | 23174 ft | 360 kts | 189° |
| 2026-05-01 15:05 | 43.06724 | 19.60237 | 23174 ft | 360 kts | 189° |
| 2026-05-01 15:05 | 43.04240 | 19.59707 | 23172 ft | 359 kts | 189° |
| 2026-05-01 15:05 | 43.01775 | 19.59183 | 23171 ft | 358 kts | 189° |
| 2026-05-01 15:05 | 42.99325 | 19.58663 | 23172 ft | 358 kts | 189° |
| 2026-05-01 15:06 | 42.96807 | 19.58122 | 22943 ft | 373 kts | 190° |
| 2026-05-01 15:06 | 42.94275 | 19.57333 | 22669 ft | 378 kts | 197° |
| 2026-05-01 15:06 | 42.91802 | 19.56147 | 22399 ft | 376 kts | 203° |
| 2026-05-01 15:06 | 42.89385 | 19.54766 | 22127 ft | 375 kts | 204° |
| 2026-05-01 15:07 | 42.87022 | 19.53381 | 21860 ft | 374 kts | 204° |
| 2026-05-01 15:07 | 42.84622 | 19.51978 | 21589 ft | 375 kts | 204° |
| 2026-05-01 15:07 | 42.82211 | 19.50574 | 21322 ft | 376 kts | 204° |
| 2026-05-01 15:07 | 42.79816 | 19.49185 | 21057 ft | 376 kts | 204° |
| 2026-05-01 15:08 | 42.77427 | 19.47803 | 20796 ft | 376 kts | 204° |
| 2026-05-01 15:08 | 42.75013 | 19.46409 | 20533 ft | 376 kts | 204° |
| 2026-05-01 15:08 | 42.72609 | 19.45024 | 20267 ft | 376 kts | 204° |
| 2026-05-01 15:08 | 42.70196 | 19.43633 | 19983 ft | 377 kts | 204° |
| 2026-05-01 15:09 | 42.67788 | 19.42248 | 19669 ft | 377 kts | 203° |
| 2026-05-01 15:09 | 42.65360 | 19.40850 | 19246 ft | 378 kts | 203° |
| 2026-05-01 15:09 | 42.62948 | 19.39464 | 18754 ft | 378 kts | 203° |
| 2026-05-01 15:09 | 42.60531 | 19.38075 | 18228 ft | 379 kts | 203° |
| 2026-05-01 15:10 | 42.58102 | 19.36682 | 17685 ft | 380 kts | 203° |
| 2026-05-01 15:10 | 42.53221 | 19.33880 | 16524 ft | 383 kts | 202° |
| 2026-05-01 15:10 | 42.50766 | 19.32459 | 15930 ft | 384 kts | 202° |
| 2026-05-01 15:11 | 42.48330 | 19.31056 | 15328 ft | 385 kts | 202° |
| 2026-05-01 15:11 | 42.43361 | 19.28214 | 14082 ft | 388 kts | 202° |
| 2026-05-01 15:11 | 42.40877 | 19.26800 | 13426 ft | 390 kts | 201° |
| 2026-05-01 15:12 | 42.38324 | 19.25498 | 12762 ft | 392 kts | 198° |
| 2026-05-01 15:12 | 42.33102 | 19.23495 | 11427 ft | 393 kts | 194° |
| 2026-05-01 15:12 | 42.30450 | 19.22549 | 10888 ft | 389 kts | 193° |
| 2026-05-01 15:13 | 42.23057 | 19.19904 | 10441 ft | 348 kts | 193° |
| 2026-05-01 15:14 | 42.18538 | 19.18284 | 10230 ft | 324 kts | 193° |
| 2026-05-01 15:14 | 42.16435 | 19.17529 | 10099 ft | 305 kts | 193° |
| 2026-05-01 15:14 | 42.12368 | 19.16076 | 9458 ft | 300 kts | 193° |
| 2026-05-01 15:15 | 42.08408 | 19.14662 | 9119 ft | 285 kts | 193° |
| 2026-05-01 15:15 | 42.05528 | 19.11660 | 8845 ft | 268 kts | 248° |
| 2026-05-01 15:16 | 42.04266 | 19.06892 | 8034 ft | 274 kts | 252° |
| 2026-05-01 15:16 | 42.02952 | 19.02098 | 7454 ft | 271 kts | 251° |
| 2026-05-01 15:17 | 42.01637 | 18.97365 | 6786 ft | 270 kts | 260° |
| 2026-05-01 15:18 | 42.04384 | 18.92196 | 5916 ft | 243 kts | 342° |
| 2026-05-01 15:18 | 42.05967 | 18.91449 | 5643 ft | 242 kts | 342° |
| 2026-05-01 15:19 | 42.10670 | 18.89117 | 4828 ft | 239 kts | 342° |
| 2026-05-01 15:19 | 42.13773 | 18.87531 | 4302 ft | 238 kts | 342° |
| 2026-05-01 15:19 | 42.15333 | 18.86733 | 4044 ft | 239 kts | 341° |
| 2026-05-01 15:20 | 42.18375 | 18.85130 | 3811 ft | 234 kts | 340° |
| 2026-05-01 15:20 | 42.19915 | 18.84306 | 3781 ft | 236 kts | 341° |
| 2026-05-01 15:20 | 42.21433 | 18.83511 | 3715 ft | 238 kts | 341° |
| 2026-05-01 15:21 | 42.22986 | 18.82707 | 3573 ft | 238 kts | 341° |
| 2026-05-01 15:21 | 42.24516 | 18.81917 | 3380 ft | 234 kts | 341° |
| 2026-05-01 15:21 | 42.26023 | 18.81140 | 3185 ft | 230 kts | 341° |
| 2026-05-01 15:21 | 42.27470 | 18.80389 | 2754 ft | 217 kts | 341° |
| 2026-05-01 15:22 | 42.30089 | 18.79048 | 2326 ft | 179 kts | 343° |
| 2026-05-01 15:22 | 42.31221 | 18.78524 | 2168 ft | 167 kts | 343° |
| 2026-05-01 15:22 | 42.32292 | 18.78002 | 1912 ft | 163 kts | 341° |
| 2026-05-01 15:23 | 42.33337 | 18.77493 | 1629 ft | 159 kts | 343° |
| 2026-05-01 15:23 | 42.34392 | 18.77082 | 1387 ft | 149 kts | 343° |
| 2026-05-01 15:23 | 42.35327 | 18.76694 | 1199 ft | 136 kts | 340° |
| 2026-05-01 15:23 | 42.36194 | 18.76248 | 976 ft | 131 kts | 338° |
| 2026-05-01 15:24 | 42.37034 | 18.75782 | 765 ft | 129 kts | 336° |
| 2026-05-01 15:24 | 42.37832 | 18.75232 | 601 ft | 129 kts | 329° |
| 2026-05-01 15:24 | 42.38582 | 18.74548 | 403 ft | 129 kts | 320° |
| 2026-05-01 15:24 | 42.39259 | 18.73760 | 167 ft | 128 kts | 316° |
| 2026-05-01 15:25 | 42.39921 | 18.72973 | 44 ft | 128 kts | 316° |
| 2026-05-01 15:25 | 42.40529 | 18.72255 | 37 ft | 94 kts | 318° |
| 2026-05-01 15:25 | 42.40890 | 18.71830 | 37 ft | 37 kts | 319° |
| 2026-05-01 15:25 | 42.40957 | 18.71793 | 37 ft | 8 kts | 46° |
| 2026-05-01 15:26 | 42.40995 | 18.71848 | 37 ft | 3 kts | 45° |
| 2026-05-01 15:26 | 42.41018 | 18.71859 | 37 ft | 4 kts | 349° |
| 2026-05-01 15:26 | 42.41037 | 18.71859 | 37 ft | 2 kts | 57° |
| 2026-05-01 15:26 | 42.41049 | 18.71879 | 37 ft | 3 kts | 55° |
| 2026-05-01 15:27 | 42.41048 | 18.71898 | 37 ft | 1 kts | 136° |
| 2026-05-01 15:27 | 42.41036 | 18.71899 | 37 ft | 0 kts | 178° |
| 2026-05-01 15:27 | 42.41034 | 18.71899 | 37 ft | 0 kts | 178° |